sensor_id;sensor_type;location;lat;lon;timestamp;pressure;altitude;pressure_sealevel;temperature;humidity
71145;BME280;58812;47.698;17.726;2023-12-07T00:00:02;100063.31;;;-0.22;100.00
71145;BME280;58812;47.698;17.726;2023-12-07T00:02:27;100065.88;;;-0.20;100.00
71145;BME280;58812;47.698;17.726;2023-12-07T00:04:53;100064.16;;;-0.21;100.00
71145;BME280;58812;47.698;17.726;2023-12-07T00:07:18;100064.84;;;-0.18;100.00
71145;BME280;58812;47.698;17.726;2023-12-07T00:09:43;100062.22;;;-0.18;100.00
71145;BME280;58812;47.698;17.726;2023-12-07T00:12:09;100068.41;;;-0.19;100.00
71145;BME280;58812;47.698;17.726;2023-12-07T00:14:34;100065.72;;;-0.17;100.00
71145;BME280;58812;47.698;17.726;2023-12-07T00:16:59;100073.59;;;-0.17;100.00
71145;BME280;58812;47.698;17.726;2023-12-07T00:19:25;100075.34;;;-0.18;100.00
71145;BME280;58812;47.698;17.726;2023-12-07T00:21:50;100085.03;;;-0.18;100.00
71145;BME280;58812;47.698;17.726;2023-12-07T00:24:16;100076.25;;;-0.17;100.00
71145;BME280;58812;47.698;17.726;2023-12-07T00:26:41;100085.03;;;-0.18;100.00
71145;BME280;58812;47.698;17.726;2023-12-07T00:29:06;100087.50;;;-0.15;100.00
71145;BME280;58812;47.698;17.726;2023-12-07T00:31:32;100091.94;;;-0.16;100.00
71145;BME280;58812;47.698;17.726;2023-12-07T00:33:57;100090.16;;;-0.15;100.00
71145;BME280;58812;47.698;17.726;2023-12-07T00:36:22;100089.97;;;-0.12;100.00
71145;BME280;58812;47.698;17.726;2023-12-07T00:38:48;100090.16;;;-0.15;100.00
71145;BME280;58812;47.698;17.726;2023-12-07T00:41:13;100095.31;;;-0.14;100.00
71145;BME280;58812;47.698;17.726;2023-12-07T00:43:39;100098.78;;;-0.13;100.00
71145;BME280;58812;47.698;17.726;2023-12-07T00:46:07;100102.22;;;-0.11;100.00
71145;BME280;58812;47.698;17.726;2023-12-07T00:48:32;100102.78;;;-0.06;100.00
71145;BME280;58812;47.698;17.726;2023-12-07T00:50:57;100100.34;;;-0.09;100.00
71145;BME280;58812;47.698;17.726;2023-12-07T00:53:23;100104.75;;;-0.10;100.00
71145;BME280;58812;47.698;17.726;2023-12-07T00:55:48;100102.03;;;-0.08;100.00
71145;BME280;58812;47.698;17.726;2023-12-07T00:58:14;100105.97;;;0.01;100.00
71145;BME280;58812;47.698;17.726;2023-12-07T01:00:39;100104.78;;;0.06;100.00
71145;BME280;58812;47.698;17.726;2023-12-07T01:03:05;100103.25;;;0.02;100.00
71145;BME280;58812;47.698;17.726;2023-12-07T01:05:30;100103.84;;;0.07;100.00
71145;BME280;58812;47.698;17.726;2023-12-07T01:07:56;100114.63;;;0.03;100.00
71145;BME280;58812;47.698;17.726;2023-12-07T01:10:21;100113.00;;;0.00;100.00
71145;BME280;58812;47.698;17.726;2023-12-07T01:12:46;100116.41;;;0.02;100.00
71145;BME280;58812;47.698;17.726;2023-12-07T01:15:12;100109.84;;;0.09;100.00
71145;BME280;58812;47.698;17.726;2023-12-07T01:17:37;100114.97;;;0.12;100.00
71145;BME280;58812;47.698;17.726;2023-12-07T01:20:05;100114.09;;;0.12;100.00
71145;BME280;58812;47.698;17.726;2023-12-07T01:22:37;100106.28;;;0.10;100.00
71145;BME280;58812;47.698;17.726;2023-12-07T01:25:03;100111.56;;;0.10;100.00
71145;BME280;58812;47.698;17.726;2023-12-07T01:27:28;100110.56;;;0.13;100.00
71145;BME280;58812;47.698;17.726;2023-12-07T01:29:54;100107.22;;;0.09;100.00
71145;BME280;58812;47.698;17.726;2023-12-07T01:32:19;100120.25;;;0.12;100.00
71145;BME280;58812;47.698;17.726;2023-12-07T01:34:44;100118.78;;;0.07;100.00
71145;BME280;58812;47.698;17.726;2023-12-07T01:37:10;100120.62;;;0.05;100.00
71145;BME280;58812;47.698;17.726;2023-12-07T01:39:35;100117.34;;;0.01;100.00
71145;BME280;58812;47.698;17.726;2023-12-07T01:42:00;100115.03;;;-0.05;100.00
71145;BME280;58812;47.698;17.726;2023-12-07T01:44:26;100116.72;;;-0.04;100.00
71145;BME280;58812;47.698;17.726;2023-12-07T01:46:53;100116.88;;;-0.07;100.00
71145;BME280;58812;47.698;17.726;2023-12-07T01:49:19;100121.19;;;-0.06;100.00
71145;BME280;58812;47.698;17.726;2023-12-07T01:51:44;100115.28;;;-0.10;100.00
71145;BME280;58812;47.698;17.726;2023-12-07T01:54:09;100122.09;;;-0.06;100.00
71145;BME280;58812;47.698;17.726;2023-12-07T01:56:35;100118.56;;;-0.06;100.00
71145;BME280;58812;47.698;17.726;2023-12-07T01:59:01;100110.69;;;-0.06;100.00
71145;BME280;58812;47.698;17.726;2023-12-07T02:01:28;100115.94;;;-0.06;100.00
71145;BME280;58812;47.698;17.726;2023-12-07T02:03:54;100109.84;;;-0.07;100.00
71145;BME280;58812;47.698;17.726;2023-12-07T02:06:20;100101.03;;;-0.06;100.00
71145;BME280;58812;47.698;17.726;2023-12-07T02:08:45;100115.09;;;-0.07;100.00
71145;BME280;58812;47.698;17.726;2023-12-07T02:11:11;100105.41;;;-0.06;100.00
71145;BME280;58812;47.698;17.726;2023-12-07T02:13:38;100103.72;;;-0.07;100.00
71145;BME280;58812;47.698;17.726;2023-12-07T02:16:09;100107.12;;;-0.05;100.00
71145;BME280;58812;47.698;17.726;2023-12-07T02:19:03;100109.78;;;-0.05;100.00
71145;BME280;58812;47.698;17.726;2023-12-07T02:21:46;100113.25;;;-0.05;100.00
71145;BME280;58812;47.698;17.726;2023-12-07T02:24:17;100112.41;;;-0.05;100.00
71145;BME280;58812;47.698;17.726;2023-12-07T02:26:45;100106.22;;;-0.04;100.00
71145;BME280;58812;47.698;17.726;2023-12-07T02:29:11;100105.25;;;-0.03;100.00
71145;BME280;58812;47.698;17.726;2023-12-07T02:31:36;100111.28;;;-0.01;100.00
71145;BME280;58812;47.698;17.726;2023-12-07T02:34:01;100108.75;;;-0.03;100.00
71145;BME280;58812;47.698;17.726;2023-12-07T02:36:28;100117.41;;;-0.01;100.00
71145;BME280;58812;47.698;17.726;2023-12-07T02:38:59;100111.37;;;-0.03;100.00
71145;BME280;58812;47.698;17.726;2023-12-07T02:41:27;100107.81;;;-0.02;100.00
71145;BME280;58812;47.698;17.726;2023-12-07T02:43:54;100111.28;;;-0.01;100.00
71145;BME280;58812;47.698;17.726;2023-12-07T02:46:19;100115.63;;;0.00;100.00
71145;BME280;58812;47.698;17.726;2023-12-07T02:48:45;100111.28;;;-0.01;100.00
71145;BME280;58812;47.698;17.726;2023-12-07T02:51:10;100112.06;;;0.01;100.00
71145;BME280;58812;47.698;17.726;2023-12-07T02:53:36;100116.50;;;0.01;100.00
71145;BME280;58812;47.698;17.726;2023-12-07T02:56:01;100120.03;;;-0.01;100.00
71145;BME280;58812;47.698;17.726;2023-12-07T02:58:27;100113.75;;;0.02;100.00
71145;BME280;58812;47.698;17.726;2023-12-07T03:00:52;100120.91;;;0.00;100.00
71145;BME280;58812;47.698;17.726;2023-12-07T03:03:18;100120.91;;;0.00;100.00
71145;BME280;58812;47.698;17.726;2023-12-07T03:05:43;100122.59;;;0.01;100.00
71145;BME280;58812;47.698;17.726;2023-12-07T03:08:08;100125.22;;;0.01;100.00
71145;BME280;58812;47.698;17.726;2023-12-07T03:10:34;100116.50;;;0.01;100.00
71145;BME280;58812;47.698;17.726;2023-12-07T03:12:59;100112.06;;;0.01;100.00
71145;BME280;58812;47.698;17.726;2023-12-07T03:15:24;100118.19;;;0.02;100.00
71145;BME280;58812;47.698;17.726;2023-12-07T03:17:51;100123.25;;;0.05;100.00
71145;BME280;58812;47.698;17.726;2023-12-07T03:20:16;100125.03;;;0.04;100.00
71145;BME280;58812;47.698;17.726;2023-12-07T03:22:42;100118.94;;;0.04;100.00
71145;BME280;58812;47.698;17.726;2023-12-07T03:25:07;100124.09;;;0.05;100.00
71145;BME280;58812;47.698;17.726;2023-12-07T03:27:33;100126.75;;;0.05;100.00
71145;BME280;58812;47.698;17.726;2023-12-07T03:29:58;100136.38;;;0.06;100.00
71145;BME280;58812;47.698;17.726;2023-12-07T03:32:23;100130.16;;;0.07;100.00
71145;BME280;58812;47.698;17.726;2023-12-07T03:34:49;100130.16;;;0.07;100.00
71145;BME280;58812;47.698;17.726;2023-12-07T03:37:14;100135.41;;;0.07;100.00
71145;BME280;58812;47.698;17.726;2023-12-07T03:39:40;100136.38;;;0.06;100.00
71145;BME280;58812;47.698;17.726;2023-12-07T03:42:05;100133.78;;;0.05;100.00
71145;BME280;58812;47.698;17.726;2023-12-07T03:44:30;100136.38;;;0.06;100.00
71145;BME280;58812;47.698;17.726;2023-12-07T03:46:56;100132.94;;;0.04;100.00
71145;BME280;58812;47.698;17.726;2023-12-07T03:49:21;100139.16;;;0.03;100.00
71145;BME280;58812;47.698;17.726;2023-12-07T03:51:47;100136.38;;;0.06;100.00
71145;BME280;58812;47.698;17.726;2023-12-07T03:54:12;100148.59;;;0.07;100.00
71145;BME280;58812;47.698;17.726;2023-12-07T03:56:38;100137.25;;;0.05;100.00
71145;BME280;58812;47.698;17.726;2023-12-07T03:59:03;100149.44;;;0.08;100.00
71145;BME280;58812;47.698;17.726;2023-12-07T04:01:29;100143.31;;;0.07;100.00
71145;BME280;58812;47.698;17.726;2023-12-07T04:03:55;100142.28;;;0.10;100.00
71145;BME280;58812;47.698;17.726;2023-12-07T04:06:22;100147.66;;;0.08;100.00
71145;BME280;58812;47.698;17.726;2023-12-07T04:08:48;100146.72;;;0.09;100.00
71145;BME280;58812;47.698;17.726;2023-12-07T04:11:14;100144.78;;;0.13;100.00
71145;BME280;58812;47.698;17.726;2023-12-07T04:13:40;100155.44;;;0.10;100.00
71145;BME280;58812;47.698;17.726;2023-12-07T04:16:06;100150.09;;;0.11;100.00
71145;BME280;58812;47.698;17.726;2023-12-07T04:18:32;100156.16;;;0.13;100.00
71145;BME280;58812;47.698;17.726;2023-12-07T04:20:57;100155.31;;;0.13;100.00
71145;BME280;58812;47.698;17.726;2023-12-07T04:23:23;100160.28;;;0.17;100.00
71145;BME280;58812;47.698;17.726;2023-12-07T04:25:48;100166.50;;;0.16;100.00
71145;BME280;58812;47.698;17.726;2023-12-07T04:28:14;100160.28;;;0.17;100.00
71145;BME280;58812;47.698;17.726;2023-12-07T04:30:39;100158.78;;;0.13;100.00
71145;BME280;58812;47.698;17.726;2023-12-07T04:33:05;100153.19;;;0.19;100.00
71145;BME280;58812;47.698;17.726;2023-12-07T04:35:30;100159.44;;;0.17;100.00
71145;BME280;58812;47.698;17.726;2023-12-07T04:37:56;100155.03;;;0.17;100.00
71145;BME280;58812;47.698;17.726;2023-12-07T04:40:21;100160.28;;;0.17;100.00
71145;BME280;58812;47.698;17.726;2023-12-07T04:42:47;100163.84;;;0.16;100.00
71145;BME280;58812;47.698;17.726;2023-12-07T04:45:12;100164.56;;;0.20;100.00
71145;BME280;58812;47.698;17.726;2023-12-07T04:47:38;100170.66;;;0.20;100.00
71145;BME280;58812;47.698;17.726;2023-12-07T04:50:04;100170.66;;;0.20;100.00
71145;BME280;58812;47.698;17.726;2023-12-07T04:52:29;100166.94;;;0.24;100.00
71145;BME280;58812;47.698;17.726;2023-12-07T04:54:55;100175.75;;;0.23;100.00
71145;BME280;58812;47.698;17.726;2023-12-07T04:57:20;100171.38;;;0.24;100.00
71145;BME280;58812;47.698;17.726;2023-12-07T04:59:46;100180.00;;;0.26;100.00
71145;BME280;58812;47.698;17.726;2023-12-07T05:02:15;100183.41;;;0.28;100.00
71145;BME280;58812;47.698;17.726;2023-12-07T05:04:42;100172.97;;;0.26;100.00
71145;BME280;58812;47.698;17.726;2023-12-07T05:07:08;100181.72;;;0.27;100.00
71145;BME280;58812;47.698;17.726;2023-12-07T05:09:33;100186.88;;;0.29;100.00
71145;BME280;58812;47.698;17.726;2023-12-07T05:11:58;100190.38;;;0.29;100.00
71145;BME280;58812;47.698;17.726;2023-12-07T05:14:24;100188.66;;;0.28;100.00
71145;BME280;58812;47.698;17.726;2023-12-07T05:16:49;100186.13;;;0.26;100.00
71145;BME280;58812;47.698;17.726;2023-12-07T05:19:25;100188.44;;;0.33;100.00
71145;BME280;58812;47.698;17.726;2023-12-07T05:21:51;100192.94;;;0.31;100.00
71145;BME280;58812;47.698;17.726;2023-12-07T05:24:16;100195.38;;;0.34;100.00
71145;BME280;58812;47.698;17.726;2023-12-07T05:26:42;100197.88;;;0.37;100.00
71145;BME280;58812;47.698;17.726;2023-12-07T05:29:08;100194.13;;;0.41;100.00
71145;BME280;58812;47.698;17.726;2023-12-07T05:31:35;100198.47;;;0.42;100.00
71145;BME280;58812;47.698;17.726;2023-12-07T05:34:00;100211.38;;;0.46;100.00
71145;BME280;58812;47.698;17.726;2023-12-07T05:36:26;100207.72;;;0.49;100.00
71145;BME280;58812;47.698;17.726;2023-12-07T05:38:51;100210.44;;;0.47;100.00
71145;BME280;58812;47.698;17.726;2023-12-07T05:41:17;100218.25;;;0.49;100.00
71145;BME280;58812;47.698;17.726;2023-12-07T05:43:42;100221.84;;;0.48;100.00
71145;BME280;58812;47.698;17.726;2023-12-07T05:46:08;100220.56;;;0.55;100.00
71145;BME280;58812;47.698;17.726;2023-12-07T05:48:33;100223.81;;;0.60;100.00
71145;BME280;58812;47.698;17.726;2023-12-07T05:50:58;100230.16;;;0.56;100.00
71145;BME280;58812;47.698;17.726;2023-12-07T05:53:24;100228.47;;;0.55;100.00
71145;BME280;58812;47.698;17.726;2023-12-07T05:55:50;100222.41;;;0.53;100.00
71145;BME280;58812;47.698;17.726;2023-12-07T05:58:16;100224.88;;;0.56;100.00
71145;BME280;58812;47.698;17.726;2023-12-07T06:00:43;100221.16;;;0.60;100.00
71145;BME280;58812;47.698;17.726;2023-12-07T06:03:09;100226.44;;;0.60;100.00
71145;BME280;58812;47.698;17.726;2023-12-07T06:05:37;100225.91;;;0.69;100.00
71145;BME280;58812;47.698;17.726;2023-12-07T06:08:03;100239.31;;;0.65;100.00
71145;BME280;58812;47.698;17.726;2023-12-07T06:10:29;100237.37;;;0.68;100.00
71145;BME280;58812;47.698;17.726;2023-12-07T06:12:55;100243.75;;;0.64;100.00
71145;BME280;58812;47.698;17.726;2023-12-07T06:15:22;100240.87;;;0.69;100.00
71145;BME280;58812;47.698;17.726;2023-12-07T06:17:47;100252.09;;;0.72;100.00
71145;BME280;58812;47.698;17.726;2023-12-07T06:20:13;100247.78;;;0.71;100.00
71145;BME280;58812;47.698;17.726;2023-12-07T06:22:38;100251.50;;;0.67;100.00
71145;BME280;58812;47.698;17.726;2023-12-07T06:25:04;100257.63;;;0.68;100.00
71145;BME280;58812;47.698;17.726;2023-12-07T06:27:30;100247.16;;;0.66;100.00
71145;BME280;58812;47.698;17.726;2023-12-07T06:29:55;100242.56;;;0.70;100.00
71145;BME280;58812;47.698;17.726;2023-12-07T06:32:21;100263.59;;;0.71;100.00
71145;BME280;58812;47.698;17.726;2023-12-07T06:34:46;100255.75;;;0.70;100.00
71145;BME280;58812;47.698;17.726;2023-12-07T06:37:12;100260.00;;;0.72;100.00
71145;BME280;58812;47.698;17.726;2023-12-07T06:39:37;100266.03;;;0.74;100.00
71145;BME280;58812;47.698;17.726;2023-12-07T06:42:03;100260.00;;;0.72;100.00
71145;BME280;58812;47.698;17.726;2023-12-07T06:44:28;100264.84;;;0.80;100.00
71145;BME280;58812;47.698;17.726;2023-12-07T06:46:54;100261.44;;;0.78;100.00
71145;BME280;58812;47.698;17.726;2023-12-07T06:49:19;100268.31;;;0.80;100.00
71145;BME280;58812;47.698;17.726;2023-12-07T06:51:44;100271.72;;;0.83;100.00
71145;BME280;58812;47.698;17.726;2023-12-07T06:54:10;100278.13;;;0.78;100.00
71145;BME280;58812;47.698;17.726;2023-12-07T06:56:35;100265.53;;;0.84;100.00
71145;BME280;58812;47.698;17.726;2023-12-07T06:59:01;100278.78;;;0.82;100.00
71145;BME280;58812;47.698;17.726;2023-12-07T07:01:26;100280.56;;;0.82;100.00
71145;BME280;58812;47.698;17.726;2023-12-07T07:03:51;100284.75;;;0.86;100.00
71145;BME280;58812;47.698;17.726;2023-12-07T07:06:17;100281.16;;;0.87;100.00
71145;BME280;58812;47.698;17.726;2023-12-07T07:08:42;100284.56;;;0.89;100.00
71145;BME280;58812;47.698;17.726;2023-12-07T07:11:14;100286.44;;;0.87;100.00
71145;BME280;58812;47.698;17.726;2023-12-07T07:13:40;100285.50;;;0.88;100.00
71145;BME280;58812;47.698;17.726;2023-12-07T07:16:07;100290.00;;;0.86;100.00
71145;BME280;58812;47.698;17.726;2023-12-07T07:18:33;100299.62;;;0.87;100.00
71145;BME280;58812;47.698;17.726;2023-12-07T07:20:58;100301.16;;;0.91;100.00
71145;BME280;58812;47.698;17.726;2023-12-07T07:23:24;100299.47;;;0.90;100.00
71145;BME280;58812;47.698;17.726;2023-12-07T07:25:49;100297.56;;;0.92;100.00
71145;BME280;58812;47.698;17.726;2023-12-07T07:28:15;100301.16;;;0.91;100.00
71145;BME280;58812;47.698;17.726;2023-12-07T07:30:40;100302.00;;;0.91;100.00
71145;BME280;58812;47.698;17.726;2023-12-07T07:33:05;100310.66;;;0.93;100.00
71145;BME280;58812;47.698;17.726;2023-12-07T07:35:31;100312.31;;;0.96;100.00
71145;BME280;58812;47.698;17.726;2023-12-07T07:37:56;100302.59;;;0.96;100.00
71145;BME280;58812;47.698;17.726;2023-12-07T07:40:22;100310.56;;;0.95;100.00
71145;BME280;58812;47.698;17.726;2023-12-07T07:42:47;100308.88;;;0.94;100.00
71145;BME280;58812;47.698;17.726;2023-12-07T07:45:13;100314.94;;;0.96;100.00
71145;BME280;58812;47.698;17.726;2023-12-07T07:47:38;100316.72;;;0.95;100.00
71145;BME280;58812;47.698;17.726;2023-12-07T07:50:05;100319.25;;;0.97;100.00
71145;BME280;58812;47.698;17.726;2023-12-07T07:52:34;100326.06;;;1.01;100.00
71145;BME280;58812;47.698;17.726;2023-12-07T07:55:03;100322.66;;;0.99;100.00
71145;BME280;58812;47.698;17.726;2023-12-07T07:57:30;100327.06;;;0.98;100.00
71145;BME280;58812;47.698;17.726;2023-12-07T07:59:56;100334.84;;;1.01;100.00
71145;BME280;58812;47.698;17.726;2023-12-07T08:02:22;100336.63;;;1.01;100.00
71145;BME280;58812;47.698;17.726;2023-12-07T08:04:47;100335.50;;;1.05;100.00
71145;BME280;58812;47.698;17.726;2023-12-07T08:07:12;100339.91;;;1.04;100.00
71145;BME280;58812;47.698;17.726;2023-12-07T08:09:38;100352.94;;;1.08;100.00
71145;BME280;58812;47.698;17.726;2023-12-07T08:12:04;100345.78;;;1.10;100.00
71145;BME280;58812;47.698;17.726;2023-12-07T08:14:30;100347.34;;;1.14;100.00
71145;BME280;58812;47.698;17.726;2023-12-07T08:16:55;100351.75;;;1.13;100.00
71145;BME280;58812;47.698;17.726;2023-12-07T08:19:21;100354.22;;;1.16;100.00
71145;BME280;58812;47.698;17.726;2023-12-07T08:21:46;100360.25;;;1.18;100.00
71145;BME280;58812;47.698;17.726;2023-12-07T08:24:11;100357.53;;;1.20;100.00
71145;BME280;58812;47.698;17.726;2023-12-07T08:26:38;100358.50;;;1.19;100.00
71145;BME280;58812;47.698;17.726;2023-12-07T08:29:04;100361.78;;;1.22;100.00
71145;BME280;58812;47.698;17.726;2023-12-07T08:31:30;100366.91;;;1.25;100.00
71145;BME280;58812;47.698;17.726;2023-12-07T08:33:55;100362.37;;;1.27;100.00
71145;BME280;58812;47.698;17.726;2023-12-07T08:36:21;100365.44;;;1.36;100.00
71145;BME280;58812;47.698;17.726;2023-12-07T08:38:46;100364.00;;;1.30;100.00
71145;BME280;58812;47.698;17.726;2023-12-07T08:41:12;100381.59;;;1.29;100.00
71145;BME280;58812;47.698;17.726;2023-12-07T08:43:37;100366.47;;;1.33;100.00
71145;BME280;58812;47.698;17.726;2023-12-07T08:46:02;100371.00;;;1.31;100.00
71145;BME280;58812;47.698;17.726;2023-12-07T08:48:29;100376.16;;;1.32;100.00
71145;BME280;58812;47.698;17.726;2023-12-07T08:50:55;100381.69;;;1.44;100.00
71145;BME280;58812;47.698;17.726;2023-12-07T08:53:20;100384.59;;;1.39;100.00
71145;BME280;58812;47.698;17.726;2023-12-07T08:55:46;100386.81;;;1.31;100.00
71145;BME280;58812;47.698;17.726;2023-12-07T08:58:11;100389.34;;;1.32;100.00
71145;BME280;58812;47.698;17.726;2023-12-07T09:00:37;100388.75;;;1.27;100.00
71145;BME280;58812;47.698;17.726;2023-12-07T09:03:03;100389.84;;;1.23;100.00
71145;BME280;58812;47.698;17.726;2023-12-07T09:05:29;100388.84;;;1.26;100.00
71145;BME280;58812;47.698;17.726;2023-12-07T09:07:55;100395.12;;;1.23;100.00
71145;BME280;58812;47.698;17.726;2023-12-07T09:10:21;100391.53;;;1.24;100.00
71145;BME280;58812;47.698;17.726;2023-12-07T09:12:47;100395.91;;;1.25;100.00
71145;BME280;58812;47.698;17.726;2023-12-07T09:15:12;100404.91;;;1.21;100.00
71145;BME280;58812;47.698;17.726;2023-12-07T09:17:38;100389.09;;;1.21;100.00
71145;BME280;58812;47.698;17.726;2023-12-07T09:20:07;100395.56;;;1.31;100.00
71145;BME280;58812;47.698;17.726;2023-12-07T09:22:46;100402.63;;;1.31;100.00
71145;BME280;58812;47.698;17.726;2023-12-07T09:25:12;100408.56;;;1.34;100.00
71145;BME280;58812;47.698;17.726;2023-12-07T09:27:39;100401.78;;;1.30;100.00
71145;BME280;58812;47.698;17.726;2023-12-07T09:30:06;100398.22;;;1.31;100.00
71145;BME280;58812;47.698;17.726;2023-12-07T09:32:32;100399.56;;;1.39;100.00
71145;BME280;58812;47.698;17.726;2023-12-07T09:35:04;100398.56;;;1.25;100.00
71145;BME280;58812;47.698;17.726;2023-12-07T09:37:29;100400.06;;;1.29;100.00
71145;BME280;58812;47.698;17.726;2023-12-07T09:39:55;100396.19;;;1.37;100.00
71145;BME280;58812;47.698;17.726;2023-12-07T09:42:20;100395.72;;;1.28;100.00
71145;BME280;58812;47.698;17.726;2023-12-07T09:44:45;100404.34;;;1.32;100.00
71145;BME280;58812;47.698;17.726;2023-12-07T09:47:11;100396.31;;;1.33;100.00
71145;BME280;58812;47.698;17.726;2023-12-07T09:49:37;100401.09;;;1.43;100.00
71145;BME280;58812;47.698;17.726;2023-12-07T09:52:03;100392.31;;;1.42;100.00
71145;BME280;58812;47.698;17.726;2023-12-07T09:54:33;100399.63;;;1.53;100.00
71145;BME280;58812;47.698;17.726;2023-12-07T09:57:00;100390.56;;;1.43;100.00
71145;BME280;58812;47.698;17.726;2023-12-07T09:59:26;100398.88;;;1.51;100.00
71145;BME280;58812;47.698;17.726;2023-12-07T10:01:51;100397.59;;;1.58;100.00
71145;BME280;58812;47.698;17.726;2023-12-07T10:06:43;100388.59;;;1.62;100.00
71145;BME280;58812;47.698;17.726;2023-12-07T10:09:13;100390.38;;;1.62;100.00
71145;BME280;58812;47.698;17.726;2023-12-07T10:11:38;100385.25;;;1.58;100.00
71145;BME280;58812;47.698;17.726;2023-12-07T10:14:07;100391.03;;;1.65;100.00
71145;BME280;58812;47.698;17.726;2023-12-07T10:16:33;100398.03;;;1.66;100.00
71145;BME280;58812;47.698;17.726;2023-12-07T10:19:14;100391.81;;;1.67;100.00
71145;BME280;58812;47.698;17.726;2023-12-07T10:21:43;100386.09;;;1.59;100.00
71145;BME280;58812;47.698;17.726;2023-12-07T10:24:09;100381.75;;;1.58;100.00
71145;BME280;58812;47.698;17.726;2023-12-07T10:26:35;100384.91;;;1.65;100.00
71145;BME280;58812;47.698;17.726;2023-12-07T10:29:04;100383.22;;;1.64;100.00
71145;BME280;58812;47.698;17.726;2023-12-07T10:31:30;100375.97;;;1.67;100.00
71145;BME280;58812;47.698;17.726;2023-12-07T10:33:56;100381.66;;;1.75;100.00
71145;BME280;58812;47.698;17.726;2023-12-07T10:36:22;100374.50;;;1.77;100.00
71145;BME280;58812;47.698;17.726;2023-12-07T10:38:48;100372.81;;;1.76;100.00
71145;BME280;58812;47.698;17.726;2023-12-07T10:41:18;100388.03;;;1.71;100.00
71145;BME280;58812;47.698;17.726;2023-12-07T10:43:48;100373.06;;;1.72;100.00
71145;BME280;58812;47.698;17.726;2023-12-07T10:46:15;100370.59;;;1.69;100.00
71145;BME280;58812;47.698;17.726;2023-12-07T10:48:47;100367.03;;;1.70;100.00
71145;BME280;58812;47.698;17.726;2023-12-07T10:51:17;100379.13;;;1.74;100.00
71145;BME280;58812;47.698;17.726;2023-12-07T10:53:48;100379.37;;;1.69;100.00
71145;BME280;58812;47.698;17.726;2023-12-07T10:56:43;100378.19;;;1.75;100.00
71145;BME280;58812;47.698;17.726;2023-12-07T10:59:06;100388.12;;;1.70;100.00
71145;BME280;58812;47.698;17.726;2023-12-07T11:01:33;100382.69;;;1.73;100.00
71145;BME280;58812;47.698;17.726;2023-12-07T11:04:00;100379.13;;;1.74;100.00
71145;BME280;58812;47.698;17.726;2023-12-07T11:06:26;100382.00;;;1.69;100.00
71145;BME280;58812;47.698;17.726;2023-12-07T11:08:58;100373.94;;;1.72;100.00
71145;BME280;58812;47.698;17.726;2023-12-07T11:14:09;100377.13;;;1.77;100.00
71145;BME280;58812;47.698;17.726;2023-12-07T11:16:41;100374.34;;;1.80;100.00
71145;BME280;58812;47.698;17.726;2023-12-07T11:21:54;100387.19;;;1.86;100.00
71145;BME280;58812;47.698;17.726;2023-12-07T11:24:20;100376.84;;;1.98;100.00
71145;BME280;58812;47.698;17.726;2023-12-07T11:26:46;100393.03;;;1.92;100.00
71145;BME280;58812;47.698;17.726;2023-12-07T11:29:11;100388.72;;;1.91;100.00
71145;BME280;58812;47.698;17.726;2023-12-07T11:31:37;100386.22;;;1.87;100.00
71145;BME280;58812;47.698;17.726;2023-12-07T11:34:06;100383.00;;;1.82;100.00
71145;BME280;58812;47.698;17.726;2023-12-07T11:36:33;100390.16;;;1.80;100.00
71145;BME280;58812;47.698;17.726;2023-12-07T11:41:34;100384.41;;;1.74;100.00
71145;BME280;58812;47.698;17.726;2023-12-07T11:44:00;100385.25;;;1.74;100.00
71145;BME280;58812;47.698;17.726;2023-12-07T11:46:26;100385.25;;;1.74;100.00
71145;BME280;58812;47.698;17.726;2023-12-07T11:48:51;100378.94;;;1.77;100.00
71145;BME280;58812;47.698;17.726;2023-12-07T11:51:17;100388.63;;;1.76;100.00
71145;BME280;58812;47.698;17.726;2023-12-07T11:53:43;100388.63;;;1.76;100.00
71145;BME280;58812;47.698;17.726;2023-12-07T11:56:10;100392.06;;;1.78;100.00
71145;BME280;58812;47.698;17.726;2023-12-07T11:58:37;100389.31;;;1.80;100.00
71145;BME280;58812;47.698;17.726;2023-12-07T12:01:03;100389.22;;;1.81;100.00
71145;BME280;58812;47.698;17.726;2023-12-07T12:03:31;100381.16;;;1.84;100.00
71145;BME280;58812;47.698;17.726;2023-12-07T12:06:02;100379.25;;;1.86;100.00
71145;BME280;58812;47.698;17.726;2023-12-07T12:08:27;100383.00;;;1.82;100.00
71145;BME280;58812;47.698;17.726;2023-12-07T12:10:54;100373.97;;;1.86;100.00
71145;BME280;58812;47.698;17.726;2023-12-07T12:13:44;100385.38;;;1.87;100.00
71145;BME280;58812;47.698;17.726;2023-12-07T12:16:10;100380.69;;;1.92;100.00
71145;BME280;58812;47.698;17.726;2023-12-07T12:18:36;100379.41;;;1.99;100.00
71145;BME280;58812;47.698;17.726;2023-12-07T12:21:02;100377.78;;;1.97;100.00
71145;BME280;58812;47.698;17.726;2023-12-07T12:23:28;100378.91;;;1.93;100.00
71145;BME280;58812;47.698;17.726;2023-12-07T12:25:54;100381.53;;;1.93;100.00
71145;BME280;58812;47.698;17.726;2023-12-07T12:28:20;100375.50;;;1.91;100.00
71145;BME280;58812;47.698;17.726;2023-12-07T12:30:48;100385.03;;;1.93;100.00
71145;BME280;58812;47.698;17.726;2023-12-07T12:33:13;100388.72;;;1.91;100.00
71145;BME280;58812;47.698;17.726;2023-12-07T12:35:39;100386.97;;;1.90;100.00
71145;BME280;58812;47.698;17.726;2023-12-07T12:38:09;100391.50;;;1.87;100.00
71145;BME280;58812;47.698;17.726;2023-12-07T12:40:35;100382.84;;;1.85;100.00
71145;BME280;58812;47.698;17.726;2023-12-07T12:43:00;100390.75;;;1.85;100.00